TAF and METAR

METAR for Arwi Airport

GMMW 011300Z 29011KT 260V320 6000 -RA SCT020 SCT100 16/13 Q1013 NOSIG
Report created 1. apr 15:00
wind 11 knots from WNW (290°) Wind direction varies from W to NW visibility 6000 meters light rain scattered clouds (~50% cover) at 2000 feet scattered clouds (~50% cover) at 10000 feet Temperature 16° with dewpoint at 13° (Humidity 82.40%) Pressure 1013 hPa no significant weather change expected the next couple of hours
No TAF available for Arwi Airport